createdAt,value
2023-03-16T00:00:20.047Z,4.25
2023-03-16T00:02:47.756Z,4.28
2023-03-16T00:05:15.503Z,4.53
2023-03-16T00:07:43.448Z,4.50
2023-03-16T00:10:12.879Z,4.67
2023-03-16T00:12:43.584Z,4.62
2023-03-16T00:15:12.646Z,4.43
2023-03-16T00:17:40.352Z,4.38
2023-03-16T00:20:08.801Z,4.18
2023-03-16T00:22:36.439Z,4.50
2023-03-16T00:25:05.062Z,4.80
2023-03-16T00:27:32.505Z,4.53
2023-03-16T00:30:03.332Z,4.64
2023-03-16T00:32:33.742Z,4.42
2023-03-16T00:35:03.072Z,4.47
2023-03-16T00:37:31.389Z,4.12
2023-03-16T00:40:00.439Z,4.14
2023-03-16T00:42:30.342Z,4.10
2023-03-16T00:44:59.864Z,4.20
2023-03-16T00:47:30.710Z,4.22
2023-03-16T00:49:58.800Z,4.31
2023-03-16T00:52:27.674Z,4.43
2023-03-16T00:54:55.901Z,4.77
2023-03-16T00:57:25.222Z,4.66
2023-03-16T00:59:53.732Z,4.29
2023-03-16T01:02:24.798Z,4.43
2023-03-16T01:04:54.638Z,4.34
2023-03-16T01:07:22.924Z,4.77
2023-03-16T01:09:51.339Z,4.80
2023-03-16T01:12:19.975Z,4.64
2023-03-16T01:14:47.961Z,4.76
2023-03-16T01:17:17.244Z,5.10
2023-03-16T01:19:45.570Z,5.32
2023-03-16T01:22:13.961Z,5.18
2023-03-16T01:24:42.605Z,4.17
2023-03-16T01:27:10.086Z,4.88
2023-03-16T01:29:38.305Z,5.23
2023-03-16T01:32:06.676Z,5.31
2023-03-16T01:34:34.637Z,5.22
2023-03-16T01:37:02.780Z,5.91
2023-03-16T01:39:30.371Z,4.68
2023-03-16T01:41:57.890Z,4.03
2023-03-16T01:44:30.642Z,3.93
2023-03-16T01:47:00.893Z,4.61
2023-03-16T01:49:29.603Z,4.73
2023-03-16T01:52:02.304Z,4.63
2023-03-16T01:54:33.927Z,4.33
2023-03-16T01:57:11.876Z,3.86
2023-03-16T01:59:43.100Z,3.81
2023-03-16T02:02:11.587Z,4.08
2023-03-16T02:04:50.408Z,4.08
2023-03-16T02:07:19.714Z,4.13
2023-03-16T02:09:51.725Z,4.09
2023-03-16T02:12:20.596Z,3.91
2023-03-16T02:14:50.241Z,4.06
2023-03-16T02:17:23.843Z,4.24
2023-03-16T02:20:08.868Z,4.12
2023-03-16T02:22:39.844Z,4.24
2023-03-16T02:25:08.358Z,4.40
2023-03-16T02:27:57.769Z,4.01
2023-03-16T02:30:26.303Z,4.08
2023-03-16T02:32:54.924Z,4.33
2023-03-16T02:35:23.017Z,4.16
2023-03-16T02:37:52.628Z,4.61
2023-03-16T02:40:22.461Z,4.33
2023-03-16T02:43:14.127Z,4.32
2023-03-16T02:45:47.480Z,4.57
2023-03-16T02:48:25.376Z,4.25
2023-03-16T02:50:53.651Z,4.36
2023-03-16T02:53:21.395Z,4.47
2023-03-16T02:55:48.860Z,4.05
2023-03-16T02:58:17.457Z,4.09
2023-03-16T03:00:46.864Z,3.95
2023-03-16T03:03:16.248Z,3.68
2023-03-16T03:05:44.003Z,3.78
2023-03-16T03:08:11.498Z,3.71
2023-03-16T03:10:39.383Z,3.53
2023-03-16T03:13:10.295Z,3.57
2023-03-16T03:15:38.434Z,3.54
2023-03-16T03:18:06.534Z,3.47
2023-03-16T03:20:52.500Z,3.31
2023-03-16T03:23:19.891Z,3.37
2023-03-16T03:25:48.051Z,3.44
2023-03-16T03:28:15.598Z,3.13
2023-03-16T03:30:43.154Z,3.39
2023-03-16T03:33:10.820Z,3.39
2023-03-16T03:35:38.250Z,3.50
2023-03-16T03:38:08.177Z,3.66
2023-03-16T03:40:36.378Z,3.58
2023-03-16T03:43:05.194Z,3.08
2023-03-16T03:45:33.154Z,3.65
2023-03-16T03:50:46.397Z,4.30
2023-03-16T03:53:15.369Z,4.10
2023-03-16T03:55:44.116Z,4.14
2023-03-16T03:58:12.216Z,4.27
2023-03-16T04:00:41.244Z,4.01
2023-03-16T04:03:09.088Z,3.76
2023-03-16T04:05:37.466Z,3.74
2023-03-16T04:08:05.717Z,3.54
2023-03-16T04:10:34.990Z,3.44
2023-03-16T04:13:02.429Z,3.37
2023-03-16T04:15:33.010Z,3.39
2023-03-16T04:18:02.060Z,3.44
2023-03-16T04:20:29.943Z,3.37
2023-03-16T04:23:00.316Z,3.21
2023-03-16T04:25:30.671Z,3.01
2023-03-16T04:27:58.648Z,2.83
2023-03-16T04:30:26.582Z,2.87
2023-03-16T04:32:54.958Z,2.95
2023-03-16T04:35:22.515Z,2.85
2023-03-16T04:37:50.106Z,2.81
2023-03-16T04:40:19.396Z,2.82
2023-03-16T04:42:48.060Z,2.86
2023-03-16T04:45:18.038Z,3.17
2023-03-16T04:47:46.144Z,3.09
2023-03-16T04:50:13.756Z,3.08
2023-03-16T04:52:41.663Z,3.24
2023-03-16T04:55:09.611Z,3.35
2023-03-16T04:57:37.675Z,3.65
2023-03-16T05:00:14.012Z,3.59
2023-03-16T05:02:42.092Z,2.06
2023-03-16T05:05:09.770Z,2.41
2023-03-16T05:07:42.727Z,3.49
2023-03-16T05:10:16.489Z,2.71
2023-03-16T05:12:43.928Z,1.93
2023-03-16T05:15:11.962Z,1.44
2023-03-16T05:17:41.985Z,1.40
2023-03-16T05:20:16.076Z,1.38
2023-03-16T05:22:46.045Z,0.95
2023-03-16T05:25:15.148Z,0.55
2023-03-16T05:27:44.250Z,0.73
2023-03-16T05:30:14.158Z,1.19
2023-03-16T05:32:42.421Z,0.82
2023-03-16T05:35:13.415Z,0.68
2023-03-16T05:37:42.412Z,0.94
2023-03-16T05:40:22.967Z,1.01
2023-03-16T05:42:55.731Z,1.85
2023-03-16T05:45:23.935Z,2.64
2023-03-16T05:47:53.550Z,2.19
2023-03-16T05:50:22.010Z,2.23
2023-03-16T05:52:49.532Z,1.68
2023-03-16T05:55:19.586Z,1.45
2023-03-16T05:57:48.961Z,1.68
2023-03-16T06:00:18.243Z,1.51
2023-03-16T06:02:48.825Z,1.49
2023-03-16T06:05:18.974Z,1.67
2023-03-16T06:07:47.148Z,2.02
2023-03-16T06:10:15.303Z,1.93
2023-03-16T06:12:43.261Z,1.90
2023-03-16T06:15:12.044Z,2.15
2023-03-16T06:17:40.988Z,1.88
2023-03-16T06:20:11.386Z,2.88
2023-03-16T06:22:41.209Z,3.17
2023-03-16T06:25:09.964Z,3.32
2023-03-16T06:27:38.028Z,2.82
2023-03-16T06:30:07.210Z,2.55
2023-03-16T06:32:36.220Z,2.28
2023-03-16T06:35:05.095Z,2.85
2023-03-16T06:37:33.538Z,3.60
2023-03-16T06:40:01.836Z,3.72
2023-03-16T06:42:29.680Z,3.24
2023-03-16T06:44:58.048Z,3.55
2023-03-16T06:47:26.320Z,2.79
2023-03-16T06:49:55.225Z,3.25
2023-03-16T06:52:23.628Z,3.17
2023-03-16T06:54:51.225Z,3.04
2023-03-16T06:57:19.948Z,3.69
2023-03-16T06:59:47.807Z,3.07
2023-03-16T07:02:15.363Z,3.34
2023-03-16T07:04:43.453Z,3.26
2023-03-16T07:07:11.841Z,3.77
2023-03-16T07:09:41.667Z,3.60
2023-03-16T07:12:10.244Z,4.35
2023-03-16T07:14:38.296Z,3.94
2023-03-16T07:17:06.649Z,4.38
2023-03-16T07:19:34.070Z,3.67
2023-03-16T07:22:02.881Z,3.60
2023-03-16T07:24:32.805Z,3.91
2023-03-16T07:27:00.345Z,4.17
2023-03-16T07:29:28.849Z,4.64
2023-03-16T07:31:56.829Z,3.92
2023-03-16T07:34:25.217Z,3.81
2023-03-16T07:36:53.197Z,4.17
2023-03-16T07:39:21.572Z,4.37
2023-03-16T07:41:51.347Z,3.92
2023-03-16T07:44:19.342Z,4.49
2023-03-16T07:46:47.304Z,3.97
2023-03-16T07:49:16.782Z,4.20
2023-03-16T07:51:45.716Z,4.28
2023-03-16T07:54:18.156Z,4.70
2023-03-16T07:56:49.213Z,4.22
2023-03-16T07:59:20.456Z,4.77
2023-03-16T08:01:48.976Z,4.98
2023-03-16T08:04:16.675Z,4.92
2023-03-16T08:06:44.412Z,4.91
2023-03-16T08:09:12.101Z,4.59
2023-03-16T08:11:40.062Z,4.81
2023-03-16T08:14:07.543Z,4.72
2023-03-16T08:16:37.491Z,5.18
2023-03-16T08:19:05.799Z,5.35
2023-03-16T08:21:35.126Z,5.55
2023-03-16T08:24:06.510Z,4.77
2023-03-16T08:26:34.862Z,4.84
2023-03-16T08:29:04.692Z,5.07
2023-03-16T08:31:35.313Z,5.04
2023-03-16T08:34:03.950Z,5.27
2023-03-16T08:36:32.459Z,5.16
2023-03-16T08:39:06.977Z,5.13
2023-03-16T08:41:35.492Z,5.17
2023-03-16T08:44:04.245Z,5.86
2023-03-16T08:46:34.093Z,5.69
2023-03-16T08:49:02.821Z,5.58
2023-03-16T08:51:32.646Z,5.83
2023-03-16T08:54:00.715Z,6.31
2023-03-16T08:56:30.511Z,6.39
2023-03-16T08:58:58.486Z,6.95
2023-03-16T09:01:26.812Z,7.13
2023-03-16T09:03:55.040Z,7.42
2023-03-16T09:06:22.845Z,7.27
2023-03-16T09:08:50.266Z,7.44
2023-03-16T09:11:19.185Z,7.57
2023-03-16T09:13:47.350Z,7.85
2023-03-16T09:16:15.779Z,7.61
2023-03-16T09:18:43.857Z,7.56
2023-03-16T09:21:13.919Z,7.83
2023-03-16T09:23:42.929Z,8.19
2023-03-16T09:26:12.532Z,8.65
2023-03-16T09:28:41.996Z,8.66
2023-03-16T09:31:12.965Z,8.87
2023-03-16T09:33:40.642Z,9.15
2023-03-16T09:36:11.454Z,8.82
2023-03-16T09:38:39.458Z,8.58
2023-03-16T09:41:08.546Z,9.52
2023-03-16T09:43:39.724Z,9.64
2023-03-16T09:46:07.227Z,10.09
2023-03-16T09:48:35.630Z,10.26
2023-03-16T09:51:04.485Z,10.30
2023-03-16T09:53:33.002Z,9.83
2023-03-16T09:56:00.127Z,9.97
2023-03-16T09:58:27.301Z,9.30
2023-03-16T10:00:58.225Z,9.33
2023-03-16T10:03:28.795Z,9.67
2023-03-16T10:05:57.814Z,10.03
2023-03-16T10:08:25.898Z,10.58
2023-03-16T10:11:12.600Z,11.23
2023-03-16T10:13:57.046Z,11.26
2023-03-16T10:16:30.928Z,11.72
2023-03-16T10:19:03.510Z,11.79
2023-03-16T10:21:34.462Z,12.50
2023-03-16T10:24:04.244Z,11.26
2023-03-16T10:26:39.301Z,10.68
2023-03-16T10:29:12.732Z,10.73
2023-03-16T10:31:44.296Z,10.95
2023-03-16T10:34:11.824Z,9.80
2023-03-16T10:36:42.070Z,10.65
2023-03-16T10:39:14.576Z,10.62
2023-03-16T10:41:45.985Z,10.30
2023-03-16T10:44:23.551Z,11.07
2023-03-16T10:46:57.969Z,10.39
2023-03-16T10:49:29.695Z,9.65
2023-03-16T10:51:59.479Z,9.62
2023-03-16T10:54:31.816Z,9.50
2023-03-16T10:56:59.118Z,9.92
2023-03-16T10:59:34.395Z,10.70
2023-03-16T11:02:18.008Z,10.56
2023-03-16T11:04:46.237Z,10.86
2023-03-16T11:07:19.769Z,10.67
2023-03-16T11:09:48.457Z,11.26
2023-03-16T11:12:21.732Z,11.02
2023-03-16T11:14:49.227Z,11.55
2023-03-16T11:17:39.848Z,11.70
2023-03-16T11:20:17.614Z,11.84
2023-03-16T11:22:45.643Z,11.69
2023-03-16T11:25:15.633Z,11.17
2023-03-16T11:27:51.490Z,11.13
2023-03-16T11:30:24.992Z,11.21
2023-03-16T11:32:54.184Z,11.64
2023-03-16T11:36:01.278Z,12.42
2023-03-16T11:39:07.664Z,12.65
2023-03-16T11:41:48.432Z,11.72
2023-03-16T11:44:22.369Z,11.19
2023-03-16T11:46:53.439Z,11.25
2023-03-16T11:49:36.104Z,11.56
2023-03-16T11:52:23.498Z,11.02
2023-03-16T11:54:54.383Z,11.48
2023-03-16T11:57:32.754Z,12.12
2023-03-16T12:00:06.197Z,11.02
2023-03-16T12:02:54.219Z,10.98
2023-03-16T12:05:36.676Z,11.33
2023-03-16T12:08:23.184Z,11.97
2023-03-16T12:10:50.526Z,11.90
2023-03-16T12:13:33.188Z,11.92
2023-03-16T12:16:11.682Z,12.48
2023-03-16T12:18:45.694Z,12.12
2023-03-16T12:21:25.675Z,11.56
2023-03-16T12:23:56.644Z,11.18
2023-03-16T12:26:29.871Z,11.59
2023-03-16T12:28:58.574Z,12.56
2023-03-16T12:31:36.542Z,12.75
2023-03-16T12:34:13.734Z,11.75
2023-03-16T12:36:41.299Z,11.51
2023-03-16T12:39:11.998Z,11.50
2023-03-16T12:41:54.575Z,11.43
2023-03-16T12:44:40.746Z,11.12
2023-03-16T12:47:15.321Z,11.12
2023-03-16T12:49:43.227Z,11.27
2023-03-16T12:52:12.552Z,11.13
2023-03-16T12:54:49.905Z,10.90
2023-03-16T12:57:18.589Z,11.55
2023-03-16T12:59:53.050Z,12.00
2023-03-16T13:02:26.495Z,12.20
2023-03-16T13:05:01.319Z,11.64
2023-03-16T13:07:31.136Z,10.99
2023-03-16T13:09:59.307Z,10.97
2023-03-16T13:12:28.030Z,10.54
2023-03-16T13:14:55.976Z,10.97
2023-03-16T13:17:31.244Z,10.77
2023-03-16T13:20:02.183Z,10.93
2023-03-16T13:22:31.254Z,11.35
2023-03-16T13:25:18.785Z,11.85
2023-03-16T13:27:46.769Z,12.07
2023-03-16T13:30:23.718Z,12.33
2023-03-16T13:32:56.292Z,11.96
2023-03-16T13:35:28.881Z,11.61
2023-03-16T13:38:05.684Z,11.20
2023-03-16T13:40:33.529Z,11.39
2023-03-16T13:43:02.057Z,11.18
2023-03-16T13:45:34.353Z,11.10
2023-03-16T13:48:02.143Z,11.61
2023-03-16T13:50:34.088Z,12.04
2023-03-16T13:53:04.434Z,11.30
2023-03-16T13:55:34.797Z,10.57
2023-03-16T13:58:03.950Z,10.93
2023-03-16T14:00:37.067Z,10.75
2023-03-16T14:03:20.089Z,10.85
2023-03-16T14:05:47.857Z,10.77
2023-03-16T14:08:16.909Z,11.00
2023-03-16T14:10:45.462Z,11.49
2023-03-16T14:13:25.570Z,11.44
2023-03-16T14:16:00.255Z,11.21
2023-03-16T14:18:35.019Z,11.43
2023-03-16T14:21:24.355Z,11.31
2023-03-16T14:24:06.645Z,11.24
2023-03-16T14:27:19.506Z,11.71
2023-03-16T14:29:53.232Z,11.90
2023-03-16T14:32:28.585Z,11.68
2023-03-16T14:35:16.572Z,11.04
2023-03-16T14:37:45.019Z,10.84
2023-03-16T14:40:33.289Z,10.82
2023-03-16T14:43:04.013Z,11.09
2023-03-16T14:45:33.959Z,11.27
2023-03-16T14:48:05.224Z,11.21
2023-03-16T14:50:33.753Z,11.63
2023-03-16T14:53:03.903Z,11.42
2023-03-16T14:55:32.265Z,11.50
2023-03-16T14:57:59.732Z,11.26
2023-03-16T15:00:27.135Z,10.93
2023-03-16T15:03:06.097Z,10.99
2023-03-16T15:05:46.216Z,11.46
2023-03-16T15:08:28.618Z,11.39
2023-03-16T15:10:59.142Z,11.68
2023-03-16T15:13:39.808Z,11.76
2023-03-16T15:16:11.491Z,11.89
2023-03-16T15:18:39.917Z,10.94
2023-03-16T15:21:26.309Z,11.00
2023-03-16T15:23:54.087Z,11.00
2023-03-16T15:26:25.101Z,10.85
2023-03-16T15:28:53.202Z,10.68
2023-03-16T15:31:21.495Z,10.74
2023-03-16T15:33:49.057Z,11.35
2023-03-16T15:36:18.822Z,11.76
2023-03-16T15:38:49.477Z,11.90
2023-03-16T15:41:17.507Z,11.56
2023-03-16T15:43:45.765Z,11.30
2023-03-16T15:46:13.821Z,11.41
2023-03-16T15:48:41.303Z,11.35
2023-03-16T15:51:23.917Z,11.78
2023-03-16T15:53:57.987Z,11.45
2023-03-16T15:56:30.006Z,11.01
2023-03-16T15:59:00.576Z,10.68
2023-03-16T16:01:31.977Z,11.37
2023-03-16T16:04:04.652Z,11.18
2023-03-16T16:06:32.828Z,10.81
2023-03-16T16:09:01.052Z,11.21
2023-03-16T16:11:28.898Z,11.39
2023-03-16T16:13:57.534Z,11.34
2023-03-16T16:16:29.490Z,11.23
2023-03-16T16:18:57.200Z,11.04
2023-03-16T16:21:29.180Z,10.76
2023-03-16T16:23:56.965Z,10.72
2023-03-16T16:26:41.527Z,10.78
2023-03-16T16:29:17.315Z,11.14
2023-03-16T16:31:45.206Z,11.03
2023-03-16T16:34:15.165Z,10.87
2023-03-16T16:36:42.806Z,10.37
2023-03-16T16:39:11.123Z,10.38
2023-03-16T16:41:40.105Z,10.88
2023-03-16T16:44:15.938Z,10.88
2023-03-16T16:46:44.236Z,11.00
2023-03-16T16:49:15.458Z,10.72
2023-03-16T16:51:43.304Z,10.34
2023-03-16T16:54:22.943Z,10.43
2023-03-16T16:56:55.012Z,10.47
2023-03-16T16:59:31.606Z,10.47
2023-03-16T17:02:00.817Z,10.48
2023-03-16T17:04:29.702Z,10.50
2023-03-16T17:07:00.958Z,10.35
2023-03-16T17:09:29.026Z,9.74
2023-03-16T17:11:59.263Z,9.92
2023-03-16T17:14:28.384Z,9.99
2023-03-16T17:16:56.624Z,10.01
2023-03-16T17:19:25.318Z,10.33
2023-03-16T17:21:53.465Z,9.57
2023-03-16T17:24:22.131Z,9.42
2023-03-16T17:26:54.217Z,9.51
2023-03-16T17:29:23.422Z,9.22
2023-03-16T17:31:51.252Z,9.09
2023-03-16T17:34:18.640Z,9.71
2023-03-16T17:36:49.450Z,9.69
2023-03-16T17:39:35.492Z,10.09
2023-03-16T17:42:08.321Z,9.88
2023-03-16T17:44:39.050Z,9.64
2023-03-16T17:47:38.511Z,9.44
2023-03-16T17:50:22.371Z,9.13
2023-03-16T17:52:54.546Z,8.99
2023-03-16T17:55:24.698Z,8.81
2023-03-16T17:57:54.162Z,8.80
2023-03-16T18:00:28.126Z,8.50
2023-03-16T18:02:57.486Z,8.51
2023-03-16T18:05:30.658Z,8.53
2023-03-16T18:08:00.884Z,8.45
2023-03-16T18:10:30.133Z,8.39
2023-03-16T18:13:05.267Z,8.36
2023-03-16T18:15:34.337Z,8.31
2023-03-16T18:18:07.994Z,8.33
2023-03-16T18:20:39.679Z,8.05
2023-03-16T18:23:30.425Z,9.15
2023-03-16T18:26:04.146Z,9.27
2023-03-16T18:28:33.329Z,7.37
2023-03-16T18:31:10.979Z,7.06
2023-03-16T18:33:41.411Z,6.89
2023-03-16T18:36:14.220Z,7.57
2023-03-16T18:38:44.138Z,7.98
2023-03-16T18:41:17.474Z,7.46
2023-03-16T18:43:50.564Z,6.77
2023-03-16T18:46:20.384Z,6.83
2023-03-16T18:48:49.685Z,6.80
2023-03-16T18:51:18.812Z,6.42
2023-03-16T18:53:47.397Z,7.02
2023-03-16T18:56:24.906Z,6.49
2023-03-16T18:58:54.772Z,6.18
2023-03-16T19:01:27.460Z,5.80
2023-03-16T19:03:56.634Z,5.47
2023-03-16T19:06:31.457Z,5.45
2023-03-16T19:09:15.505Z,5.45
2023-03-16T19:11:45.008Z,5.50
2023-03-16T19:14:15.347Z,5.89
2023-03-16T19:16:44.787Z,5.65
2023-03-16T19:19:13.990Z,5.29
2023-03-16T19:21:43.328Z,5.43
2023-03-16T19:24:18.230Z,6.20
2023-03-16T19:26:47.185Z,6.68
2023-03-16T19:29:16.130Z,6.47
2023-03-16T19:31:44.588Z,6.51
2023-03-16T19:34:17.753Z,7.11
2023-03-16T19:36:50.555Z,6.87
2023-03-16T19:39:19.936Z,7.29
2023-03-16T19:41:50.457Z,6.95
2023-03-16T19:44:20.654Z,7.43
2023-03-16T19:46:50.878Z,6.61
2023-03-16T19:49:23.290Z,6.65
2023-03-16T19:51:53.163Z,6.52
2023-03-16T19:54:28.320Z,6.73
2023-03-16T19:56:57.329Z,6.92
2023-03-16T19:59:26.779Z,7.04
2023-03-16T20:01:57.998Z,7.28
2023-03-16T20:04:28.945Z,7.29
2023-03-16T20:06:57.693Z,7.50
2023-03-16T20:09:29.629Z,7.63
2023-03-16T20:12:01.320Z,7.46
2023-03-16T20:14:32.685Z,7.43
2023-03-16T20:17:01.623Z,7.60
2023-03-16T20:19:30.080Z,6.56
2023-03-16T20:22:01.234Z,6.76
2023-03-16T20:24:34.126Z,6.58
2023-03-16T20:27:04.631Z,7.09
2023-03-16T20:29:33.220Z,7.13
2023-03-16T20:32:06.034Z,7.18
2023-03-16T20:34:35.499Z,7.63
2023-03-16T20:37:03.169Z,6.81
2023-03-16T20:39:33.507Z,6.83
2023-03-16T20:42:02.014Z,6.79
2023-03-16T20:44:32.717Z,6.98
2023-03-16T20:47:00.593Z,6.90
2023-03-16T20:49:30.353Z,7.06
2023-03-16T20:51:58.631Z,7.01
2023-03-16T20:54:26.317Z,6.97
2023-03-16T20:56:55.479Z,7.04
2023-03-16T20:59:26.357Z,7.16
2023-03-16T21:01:55.753Z,6.97
2023-03-16T21:04:25.931Z,6.65
2023-03-16T21:06:54.037Z,6.83
2023-03-16T21:09:23.381Z,5.73
2023-03-16T21:11:51.108Z,4.86
2023-03-16T21:14:22.464Z,5.19
2023-03-16T21:16:49.889Z,5.66
2023-03-16T21:19:19.147Z,6.15
2023-03-16T21:21:47.004Z,6.13
2023-03-16T21:24:14.830Z,6.04
2023-03-16T21:26:42.169Z,5.71
2023-03-16T21:29:16.774Z,4.08
2023-03-16T21:31:44.063Z,3.39
2023-03-16T21:34:38.154Z,3.01
2023-03-16T21:37:11.928Z,2.82
2023-03-16T21:39:39.460Z,3.11
2023-03-16T21:42:07.071Z,2.85
2023-03-16T21:44:34.312Z,2.39
2023-03-16T21:47:01.921Z,2.40
2023-03-16T21:49:29.296Z,2.51
2023-03-16T21:51:56.724Z,3.86
2023-03-16T21:54:24.218Z,4.28
2023-03-16T21:56:51.472Z,4.10
2023-03-16T21:59:18.641Z,4.40
2023-03-16T22:02:00.730Z,4.39
2023-03-16T22:04:28.937Z,4.67
2023-03-16T22:06:56.185Z,4.10
2023-03-16T22:09:24.956Z,4.46
2023-03-16T22:11:52.546Z,3.95
2023-03-16T22:14:19.889Z,3.39
2023-03-16T22:16:47.415Z,4.14
2023-03-16T22:19:15.943Z,4.07
2023-03-16T22:21:43.776Z,3.65
2023-03-16T22:24:15.791Z,3.87
2023-03-16T22:26:43.218Z,3.65
2023-03-16T22:29:23.281Z,2.84
2023-03-16T22:31:53.796Z,3.09
2023-03-16T22:34:29.172Z,3.15
2023-03-16T22:36:56.949Z,3.29
2023-03-16T22:39:24.193Z,2.25
2023-03-16T22:41:51.929Z,2.48
2023-03-16T22:44:22.974Z,1.97
2023-03-16T22:46:50.814Z,1.68
2023-03-16T22:49:19.876Z,1.55
2023-03-16T22:51:47.321Z,1.97
2023-03-16T22:54:15.960Z,1.91
2023-03-16T22:56:43.994Z,1.51
2023-03-16T22:59:13.283Z,1.36
2023-03-16T23:01:41.790Z,1.17
2023-03-16T23:04:13.620Z,1.23
2023-03-16T23:06:41.957Z,1.21
2023-03-16T23:09:11.167Z,1.58
2023-03-16T23:11:38.297Z,1.67
2023-03-16T23:14:15.983Z,1.90
2023-03-16T23:16:44.404Z,2.52
2023-03-16T23:19:32.777Z,3.18
2023-03-16T23:22:04.540Z,3.44
2023-03-16T23:24:32.397Z,3.57
2023-03-16T23:26:59.582Z,2.98
2023-03-16T23:29:26.733Z,2.11
2023-03-16T23:31:54.694Z,1.87
2023-03-16T23:34:23.205Z,1.34
2023-03-16T23:36:51.386Z,1.73
2023-03-16T23:39:19.082Z,1.98
2023-03-16T23:41:47.182Z,3.05
2023-03-16T23:44:21.660Z,3.21
2023-03-16T23:46:49.194Z,3.44
2023-03-16T23:49:22.583Z,3.26
2023-03-16T23:51:51.017Z,2.41
2023-03-16T23:54:25.432Z,2.30
2023-03-16T23:56:52.891Z,1.66
2023-03-16T23:59:20.927Z,1.61
